sensor_id;sensor_type;location;lat;lon;timestamp;P1;durP1;ratioP1;P2;durP2;ratioP2
16862;SDS011;52193;48.216;-1.698;2023-12-07T00:01:57;34.72;;;32.22;;
16862;SDS011;52193;48.216;-1.698;2023-12-07T00:04:24;33.38;;;30.85;;
16862;SDS011;52193;48.216;-1.698;2023-12-07T00:06:51;31.90;;;29.65;;
16862;SDS011;52193;48.216;-1.698;2023-12-07T00:09:19;31.45;;;29.15;;
16862;SDS011;52193;48.216;-1.698;2023-12-07T00:11:46;29.77;;;27.80;;
16862;SDS011;52193;48.216;-1.698;2023-12-07T00:14:13;31.17;;;28.80;;
16862;SDS011;52193;48.216;-1.698;2023-12-07T00:16:40;31.33;;;28.90;;
16862;SDS011;52193;48.216;-1.698;2023-12-07T00:19:07;30.38;;;28.25;;
16862;SDS011;52193;48.216;-1.698;2023-12-07T00:21:34;30.98;;;28.75;;
16862;SDS011;52193;48.216;-1.698;2023-12-07T00:24:01;30.25;;;28.10;;
16862;SDS011;52193;48.216;-1.698;2023-12-07T00:26:30;29.05;;;27.05;;
16862;SDS011;52193;48.216;-1.698;2023-12-07T00:28:57;29.88;;;27.52;;
16862;SDS011;52193;48.216;-1.698;2023-12-07T00:31:23;29.00;;;26.80;;
16862;SDS011;52193;48.216;-1.698;2023-12-07T00:33:51;29.30;;;27.10;;
16862;SDS011;52193;48.216;-1.698;2023-12-07T00:36:18;28.95;;;26.88;;
16862;SDS011;52193;48.216;-1.698;2023-12-07T00:38:44;29.30;;;27.00;;
16862;SDS011;52193;48.216;-1.698;2023-12-07T00:41:11;29.38;;;27.20;;
16862;SDS011;52193;48.216;-1.698;2023-12-07T00:43:40;28.40;;;26.35;;
16862;SDS011;52193;48.216;-1.698;2023-12-07T00:46:07;28.48;;;26.48;;
16862;SDS011;52193;48.216;-1.698;2023-12-07T00:48:34;28.45;;;26.27;;
16862;SDS011;52193;48.216;-1.698;2023-12-07T00:51:01;27.27;;;25.25;;
16862;SDS011;52193;48.216;-1.698;2023-12-07T00:53:28;26.27;;;24.30;;
16862;SDS011;52193;48.216;-1.698;2023-12-07T00:55:54;26.75;;;24.65;;
16862;SDS011;52193;48.216;-1.698;2023-12-07T00:58:21;25.58;;;23.77;;
16862;SDS011;52193;48.216;-1.698;2023-12-07T01:00:50;25.70;;;23.77;;
16862;SDS011;52193;48.216;-1.698;2023-12-07T01:03:17;25.60;;;23.80;;
16862;SDS011;52193;48.216;-1.698;2023-12-07T01:05:44;25.45;;;23.60;;
16862;SDS011;52193;48.216;-1.698;2023-12-07T01:08:11;24.85;;;23.05;;
16862;SDS011;52193;48.216;-1.698;2023-12-07T01:10:38;25.10;;;23.33;;
16862;SDS011;52193;48.216;-1.698;2023-12-07T01:13:05;24.30;;;22.65;;
16862;SDS011;52193;48.216;-1.698;2023-12-07T01:15:32;24.85;;;23.00;;
16862;SDS011;52193;48.216;-1.698;2023-12-07T01:18:00;23.98;;;22.35;;
16862;SDS011;52193;48.216;-1.698;2023-12-07T01:20:27;24.13;;;22.23;;
16862;SDS011;52193;48.216;-1.698;2023-12-07T01:22:53;23.75;;;22.25;;
16862;SDS011;52193;48.216;-1.698;2023-12-07T01:25:20;22.70;;;21.02;;
16862;SDS011;52193;48.216;-1.698;2023-12-07T01:27:48;23.65;;;21.95;;
16862;SDS011;52193;48.216;-1.698;2023-12-07T01:30:15;23.38;;;21.77;;
16862;SDS011;52193;48.216;-1.698;2023-12-07T01:32:41;22.38;;;20.75;;
16862;SDS011;52193;48.216;-1.698;2023-12-07T01:35:10;22.42;;;20.85;;
16862;SDS011;52193;48.216;-1.698;2023-12-07T01:37:37;22.20;;;20.58;;
16862;SDS011;52193;48.216;-1.698;2023-12-07T01:40:05;21.98;;;20.38;;
16862;SDS011;52193;48.216;-1.698;2023-12-07T01:42:35;21.92;;;20.35;;
16862;SDS011;52193;48.216;-1.698;2023-12-07T01:45:03;21.35;;;19.73;;
16862;SDS011;52193;48.216;-1.698;2023-12-07T01:47:30;21.63;;;20.13;;
16862;SDS011;52193;48.216;-1.698;2023-12-07T01:49:58;21.85;;;20.23;;
16862;SDS011;52193;48.216;-1.698;2023-12-07T01:52:27;19.98;;;18.50;;
16862;SDS011;52193;48.216;-1.698;2023-12-07T01:54:55;19.08;;;17.77;;
16862;SDS011;52193;48.216;-1.698;2023-12-07T01:57:23;19.88;;;18.48;;
16862;SDS011;52193;48.216;-1.698;2023-12-07T01:59:51;19.90;;;18.40;;
16862;SDS011;52193;48.216;-1.698;2023-12-07T02:02:18;19.20;;;17.73;;
16862;SDS011;52193;48.216;-1.698;2023-12-07T02:04:45;19.80;;;18.13;;
16862;SDS011;52193;48.216;-1.698;2023-12-07T02:07:11;18.85;;;17.52;;
16862;SDS011;52193;48.216;-1.698;2023-12-07T02:09:40;18.00;;;16.67;;
16862;SDS011;52193;48.216;-1.698;2023-12-07T02:12:07;18.35;;;16.85;;
16862;SDS011;52193;48.216;-1.698;2023-12-07T02:14:34;17.98;;;16.58;;
16862;SDS011;52193;48.216;-1.698;2023-12-07T02:17:04;17.45;;;16.35;;
16862;SDS011;52193;48.216;-1.698;2023-12-07T02:19:47;17.95;;;16.75;;
16862;SDS011;52193;48.216;-1.698;2023-12-07T02:22:24;17.35;;;16.13;;
16862;SDS011;52193;48.216;-1.698;2023-12-07T02:24:59;16.45;;;15.30;;
16862;SDS011;52193;48.216;-1.698;2023-12-07T02:27:36;16.67;;;15.38;;
16862;SDS011;52193;48.216;-1.698;2023-12-07T02:30:05;15.82;;;14.70;;
16862;SDS011;52193;48.216;-1.698;2023-12-07T02:32:33;16.70;;;15.48;;
16862;SDS011;52193;48.216;-1.698;2023-12-07T02:35:00;16.35;;;15.05;;
16862;SDS011;52193;48.216;-1.698;2023-12-07T02:37:27;16.58;;;15.30;;
16862;SDS011;52193;48.216;-1.698;2023-12-07T02:39:58;16.42;;;15.25;;
16862;SDS011;52193;48.216;-1.698;2023-12-07T02:42:28;16.15;;;14.88;;
16862;SDS011;52193;48.216;-1.698;2023-12-07T02:44:59;15.68;;;14.50;;
16862;SDS011;52193;48.216;-1.698;2023-12-07T02:47:26;16.10;;;14.82;;
16862;SDS011;52193;48.216;-1.698;2023-12-07T02:49:53;15.85;;;14.65;;
16862;SDS011;52193;48.216;-1.698;2023-12-07T02:52:20;15.45;;;14.25;;
16862;SDS011;52193;48.216;-1.698;2023-12-07T02:54:47;14.40;;;13.60;;
16862;SDS011;52193;48.216;-1.698;2023-12-07T02:57:14;14.63;;;13.52;;
16862;SDS011;52193;48.216;-1.698;2023-12-07T02:59:41;14.40;;;13.45;;
16862;SDS011;52193;48.216;-1.698;2023-12-07T03:02:09;14.15;;;13.25;;
16862;SDS011;52193;48.216;-1.698;2023-12-07T03:04:36;14.25;;;13.15;;
16862;SDS011;52193;48.216;-1.698;2023-12-07T03:07:03;14.75;;;13.55;;
16862;SDS011;52193;48.216;-1.698;2023-12-07T03:09:30;13.75;;;12.85;;
16862;SDS011;52193;48.216;-1.698;2023-12-07T03:11:57;13.90;;;12.95;;
16862;SDS011;52193;48.216;-1.698;2023-12-07T03:14:24;14.65;;;13.40;;
16862;SDS011;52193;48.216;-1.698;2023-12-07T03:16:51;14.18;;;13.18;;
16862;SDS011;52193;48.216;-1.698;2023-12-07T03:19:19;14.18;;;13.07;;
16862;SDS011;52193;48.216;-1.698;2023-12-07T03:21:46;13.85;;;12.85;;
16862;SDS011;52193;48.216;-1.698;2023-12-07T03:24:13;13.77;;;12.68;;
16862;SDS011;52193;48.216;-1.698;2023-12-07T03:26:40;13.85;;;12.80;;
16862;SDS011;52193;48.216;-1.698;2023-12-07T03:29:07;13.63;;;12.73;;
16862;SDS011;52193;48.216;-1.698;2023-12-07T03:31:34;13.50;;;12.48;;
16862;SDS011;52193;48.216;-1.698;2023-12-07T03:34:01;13.13;;;12.23;;
16862;SDS011;52193;48.216;-1.698;2023-12-07T03:36:30;12.75;;;11.90;;
16862;SDS011;52193;48.216;-1.698;2023-12-07T03:38:56;13.05;;;11.90;;
16862;SDS011;52193;48.216;-1.698;2023-12-07T03:41:23;12.07;;;11.18;;
16862;SDS011;52193;48.216;-1.698;2023-12-07T03:43:50;12.35;;;11.45;;
16862;SDS011;52193;48.216;-1.698;2023-12-07T03:46:17;12.55;;;11.75;;
16862;SDS011;52193;48.216;-1.698;2023-12-07T03:48:44;13.05;;;11.85;;
16862;SDS011;52193;48.216;-1.698;2023-12-07T03:51:12;12.63;;;11.60;;
16862;SDS011;52193;48.216;-1.698;2023-12-07T03:53:42;12.18;;;11.20;;
16862;SDS011;52193;48.216;-1.698;2023-12-07T03:56:09;11.45;;;10.65;;
16862;SDS011;52193;48.216;-1.698;2023-12-07T03:58:36;12.68;;;11.77;;
16862;SDS011;52193;48.216;-1.698;2023-12-07T04:01:03;12.32;;;11.45;;
16862;SDS011;52193;48.216;-1.698;2023-12-07T04:03:30;12.50;;;11.63;;
16862;SDS011;52193;48.216;-1.698;2023-12-07T04:05:57;12.73;;;11.68;;
16862;SDS011;52193;48.216;-1.698;2023-12-07T04:08:23;12.60;;;11.35;;
16862;SDS011;52193;48.216;-1.698;2023-12-07T04:10:52;12.57;;;11.45;;
16862;SDS011;52193;48.216;-1.698;2023-12-07T04:13:18;11.95;;;11.05;;
16862;SDS011;52193;48.216;-1.698;2023-12-07T04:15:45;12.32;;;11.52;;
16862;SDS011;52193;48.216;-1.698;2023-12-07T04:18:12;12.32;;;11.43;;
16862;SDS011;52193;48.216;-1.698;2023-12-07T04:20:39;12.30;;;11.32;;
16862;SDS011;52193;48.216;-1.698;2023-12-07T04:23:06;12.63;;;11.63;;
16862;SDS011;52193;48.216;-1.698;2023-12-07T04:25:33;12.07;;;11.25;;
16862;SDS011;52193;48.216;-1.698;2023-12-07T04:28:01;12.38;;;11.40;;
16862;SDS011;52193;48.216;-1.698;2023-12-07T04:30:28;11.75;;;10.95;;
16862;SDS011;52193;48.216;-1.698;2023-12-07T04:32:55;12.80;;;11.77;;
16862;SDS011;52193;48.216;-1.698;2023-12-07T04:35:22;12.68;;;11.77;;
16862;SDS011;52193;48.216;-1.698;2023-12-07T04:37:48;12.10;;;11.30;;
16862;SDS011;52193;48.216;-1.698;2023-12-07T04:40:15;11.85;;;10.95;;
16862;SDS011;52193;48.216;-1.698;2023-12-07T04:42:42;11.65;;;10.85;;
16862;SDS011;52193;48.216;-1.698;2023-12-07T04:45:10;11.98;;;11.00;;
16862;SDS011;52193;48.216;-1.698;2023-12-07T04:47:37;12.30;;;11.30;;
16862;SDS011;52193;48.216;-1.698;2023-12-07T04:50:04;11.60;;;10.70;;
16862;SDS011;52193;48.216;-1.698;2023-12-07T04:52:32;11.57;;;10.65;;
16862;SDS011;52193;48.216;-1.698;2023-12-07T04:54:59;11.35;;;10.40;;
16862;SDS011;52193;48.216;-1.698;2023-12-07T04:57:26;11.15;;;10.20;;
16862;SDS011;52193;48.216;-1.698;2023-12-07T04:59:52;10.98;;;10.15;;
16862;SDS011;52193;48.216;-1.698;2023-12-07T05:02:21;11.50;;;10.70;;
16862;SDS011;52193;48.216;-1.698;2023-12-07T05:04:47;10.88;;;10.20;;
16862;SDS011;52193;48.216;-1.698;2023-12-07T05:07:14;11.10;;;10.30;;
16862;SDS011;52193;48.216;-1.698;2023-12-07T05:09:42;11.23;;;10.43;;
16862;SDS011;52193;48.216;-1.698;2023-12-07T05:12:09;11.85;;;10.35;;
16862;SDS011;52193;48.216;-1.698;2023-12-07T05:14:36;11.18;;;10.25;;
16862;SDS011;52193;48.216;-1.698;2023-12-07T05:17:03;12.23;;;11.20;;
16862;SDS011;52193;48.216;-1.698;2023-12-07T05:19:32;12.00;;;10.90;;
16862;SDS011;52193;48.216;-1.698;2023-12-07T05:21:58;12.43;;;11.63;;
16862;SDS011;52193;48.216;-1.698;2023-12-07T05:24:25;12.45;;;11.55;;
16862;SDS011;52193;48.216;-1.698;2023-12-07T05:26:52;14.48;;;13.15;;
16862;SDS011;52193;48.216;-1.698;2023-12-07T05:29:19;15.13;;;13.75;;
16862;SDS011;52193;48.216;-1.698;2023-12-07T05:31:48;15.95;;;14.68;;
16862;SDS011;52193;48.216;-1.698;2023-12-07T05:34:15;17.40;;;16.27;;
16862;SDS011;52193;48.216;-1.698;2023-12-07T05:36:44;17.52;;;16.38;;
16862;SDS011;52193;48.216;-1.698;2023-12-07T05:39:11;19.25;;;17.95;;
16862;SDS011;52193;48.216;-1.698;2023-12-07T05:41:38;20.25;;;18.90;;
16862;SDS011;52193;48.216;-1.698;2023-12-07T05:44:05;20.95;;;19.55;;
16862;SDS011;52193;48.216;-1.698;2023-12-07T05:46:32;20.63;;;19.15;;
16862;SDS011;52193;48.216;-1.698;2023-12-07T05:49:01;20.77;;;19.38;;
16862;SDS011;52193;48.216;-1.698;2023-12-07T05:51:28;20.42;;;19.10;;
16862;SDS011;52193;48.216;-1.698;2023-12-07T05:53:56;22.45;;;20.98;;
16862;SDS011;52193;48.216;-1.698;2023-12-07T05:56:23;23.83;;;22.13;;
16862;SDS011;52193;48.216;-1.698;2023-12-07T05:58:50;24.35;;;22.85;;
16862;SDS011;52193;48.216;-1.698;2023-12-07T06:01:17;23.48;;;22.00;;
16862;SDS011;52193;48.216;-1.698;2023-12-07T06:03:45;24.30;;;22.80;;
16862;SDS011;52193;48.216;-1.698;2023-12-07T06:06:12;25.10;;;23.60;;
16862;SDS011;52193;48.216;-1.698;2023-12-07T06:08:39;25.55;;;23.85;;
16862;SDS011;52193;48.216;-1.698;2023-12-07T06:11:08;24.60;;;23.20;;
16862;SDS011;52193;48.216;-1.698;2023-12-07T06:13:35;29.42;;;27.38;;
16862;SDS011;52193;48.216;-1.698;2023-12-07T06:16:01;28.80;;;27.08;;
16862;SDS011;52193;48.216;-1.698;2023-12-07T06:18:29;29.42;;;27.73;;
16862;SDS011;52193;48.216;-1.698;2023-12-07T06:20:55;28.85;;;27.13;;
16862;SDS011;52193;48.216;-1.698;2023-12-07T06:23:22;28.85;;;27.08;;
16862;SDS011;52193;48.216;-1.698;2023-12-07T06:25:49;28.92;;;27.15;;
16862;SDS011;52193;48.216;-1.698;2023-12-07T06:28:17;29.05;;;27.45;;
16862;SDS011;52193;48.216;-1.698;2023-12-07T06:30:44;30.50;;;28.50;;
16862;SDS011;52193;48.216;-1.698;2023-12-07T06:33:11;30.67;;;28.58;;
16862;SDS011;52193;48.216;-1.698;2023-12-07T06:35:38;28.88;;;26.98;;
16862;SDS011;52193;48.216;-1.698;2023-12-07T06:38:05;29.20;;;27.17;;
16862;SDS011;52193;48.216;-1.698;2023-12-07T06:40:32;28.77;;;27.02;;
16862;SDS011;52193;48.216;-1.698;2023-12-07T06:42:59;28.98;;;26.80;;
16862;SDS011;52193;48.216;-1.698;2023-12-07T06:45:27;28.35;;;26.55;;
16862;SDS011;52193;48.216;-1.698;2023-12-07T06:47:54;27.88;;;26.27;;
16862;SDS011;52193;48.216;-1.698;2023-12-07T06:50:21;27.23;;;25.48;;
16862;SDS011;52193;48.216;-1.698;2023-12-07T06:52:47;27.70;;;25.90;;
16862;SDS011;52193;48.216;-1.698;2023-12-07T06:55:14;28.02;;;26.48;;
16862;SDS011;52193;48.216;-1.698;2023-12-07T06:57:41;28.58;;;26.73;;
16862;SDS011;52193;48.216;-1.698;2023-12-07T07:00:08;27.52;;;25.83;;
16862;SDS011;52193;48.216;-1.698;2023-12-07T07:02:37;26.52;;;24.98;;
16862;SDS011;52193;48.216;-1.698;2023-12-07T07:05:04;26.55;;;24.98;;
16862;SDS011;52193;48.216;-1.698;2023-12-07T07:07:31;25.85;;;24.15;;
16862;SDS011;52193;48.216;-1.698;2023-12-07T07:09:58;25.75;;;24.15;;
16862;SDS011;52193;48.216;-1.698;2023-12-07T07:12:25;25.45;;;23.98;;
16862;SDS011;52193;48.216;-1.698;2023-12-07T07:14:52;26.38;;;24.67;;
16862;SDS011;52193;48.216;-1.698;2023-12-07T07:17:19;27.17;;;25.30;;
16862;SDS011;52193;48.216;-1.698;2023-12-07T07:19:48;26.00;;;24.30;;
16862;SDS011;52193;48.216;-1.698;2023-12-07T07:22:13;26.45;;;24.95;;
16862;SDS011;52193;48.216;-1.698;2023-12-07T07:24:41;27.10;;;25.45;;
16862;SDS011;52193;48.216;-1.698;2023-12-07T07:27:08;27.63;;;25.77;;
16862;SDS011;52193;48.216;-1.698;2023-12-07T07:29:34;27.77;;;26.13;;
16862;SDS011;52193;48.216;-1.698;2023-12-07T07:32:01;27.73;;;26.08;;
16862;SDS011;52193;48.216;-1.698;2023-12-07T07:34:28;27.58;;;25.98;;
16862;SDS011;52193;48.216;-1.698;2023-12-07T07:36:56;26.98;;;25.48;;
16862;SDS011;52193;48.216;-1.698;2023-12-07T07:39:23;27.02;;;25.52;;
16862;SDS011;52193;48.216;-1.698;2023-12-07T07:41:50;27.67;;;26.15;;
16862;SDS011;52193;48.216;-1.698;2023-12-07T07:44:17;28.48;;;26.58;;
16862;SDS011;52193;48.216;-1.698;2023-12-07T07:46:44;29.13;;;27.27;;
16862;SDS011;52193;48.216;-1.698;2023-12-07T07:49:11;29.02;;;27.38;;
16862;SDS011;52193;48.216;-1.698;2023-12-07T07:51:38;28.00;;;26.25;;
16862;SDS011;52193;48.216;-1.698;2023-12-07T07:54:06;28.10;;;26.52;;
16862;SDS011;52193;48.216;-1.698;2023-12-07T07:56:33;28.88;;;27.10;;
16862;SDS011;52193;48.216;-1.698;2023-12-07T07:59:00;28.15;;;26.45;;
16862;SDS011;52193;48.216;-1.698;2023-12-07T08:01:27;28.98;;;27.17;;
16862;SDS011;52193;48.216;-1.698;2023-12-07T08:03:54;29.08;;;27.40;;
16862;SDS011;52193;48.216;-1.698;2023-12-07T08:06:21;28.23;;;26.63;;
16862;SDS011;52193;48.216;-1.698;2023-12-07T08:08:47;28.00;;;26.38;;
16862;SDS011;52193;48.216;-1.698;2023-12-07T08:11:17;29.55;;;27.63;;
16862;SDS011;52193;48.216;-1.698;2023-12-07T08:13:44;28.38;;;26.80;;
16862;SDS011;52193;48.216;-1.698;2023-12-07T08:16:11;29.38;;;27.65;;
16862;SDS011;52193;48.216;-1.698;2023-12-07T08:18:38;29.50;;;27.85;;
16862;SDS011;52193;48.216;-1.698;2023-12-07T08:21:05;29.15;;;27.55;;
16862;SDS011;52193;48.216;-1.698;2023-12-07T08:23:33;29.35;;;27.48;;
16862;SDS011;52193;48.216;-1.698;2023-12-07T08:26:07;30.38;;;28.45;;
16862;SDS011;52193;48.216;-1.698;2023-12-07T08:28:36;28.95;;;27.15;;
16862;SDS011;52193;48.216;-1.698;2023-12-07T08:31:03;28.77;;;27.17;;
16862;SDS011;52193;48.216;-1.698;2023-12-07T08:33:30;28.17;;;26.63;;
16862;SDS011;52193;48.216;-1.698;2023-12-07T08:35:59;29.02;;;27.35;;
16862;SDS011;52193;48.216;-1.698;2023-12-07T08:38:26;29.40;;;27.60;;
16862;SDS011;52193;48.216;-1.698;2023-12-07T08:40:53;30.05;;;28.23;;
16862;SDS011;52193;48.216;-1.698;2023-12-07T08:43:21;30.20;;;28.38;;
16862;SDS011;52193;48.216;-1.698;2023-12-07T08:45:50;30.90;;;28.95;;
16862;SDS011;52193;48.216;-1.698;2023-12-07T08:48:17;31.25;;;29.45;;
16862;SDS011;52193;48.216;-1.698;2023-12-07T08:50:45;31.55;;;29.65;;
16862;SDS011;52193;48.216;-1.698;2023-12-07T08:53:12;31.50;;;29.65;;
16862;SDS011;52193;48.216;-1.698;2023-12-07T08:55:39;32.25;;;30.25;;
16862;SDS011;52193;48.216;-1.698;2023-12-07T08:58:06;31.30;;;29.52;;
16862;SDS011;52193;48.216;-1.698;2023-12-07T09:00:33;31.00;;;29.20;;
16862;SDS011;52193;48.216;-1.698;2023-12-07T09:03:01;31.55;;;29.75;;
16862;SDS011;52193;48.216;-1.698;2023-12-07T09:05:28;31.77;;;29.98;;
16862;SDS011;52193;48.216;-1.698;2023-12-07T09:07:55;34.15;;;31.95;;
16862;SDS011;52193;48.216;-1.698;2023-12-07T09:10:22;34.65;;;32.45;;
16862;SDS011;52193;48.216;-1.698;2023-12-07T09:12:49;34.30;;;32.15;;
16862;SDS011;52193;48.216;-1.698;2023-12-07T09:15:16;33.40;;;31.40;;
16862;SDS011;52193;48.216;-1.698;2023-12-07T09:17:43;34.00;;;31.88;;
16862;SDS011;52193;48.216;-1.698;2023-12-07T09:20:11;34.47;;;32.05;;
16862;SDS011;52193;48.216;-1.698;2023-12-07T09:22:39;33.60;;;31.60;;
16862;SDS011;52193;48.216;-1.698;2023-12-07T09:25:08;33.72;;;31.63;;
16862;SDS011;52193;48.216;-1.698;2023-12-07T09:27:36;34.42;;;32.33;;
16862;SDS011;52193;48.216;-1.698;2023-12-07T09:30:04;33.58;;;31.55;;
16862;SDS011;52193;48.216;-1.698;2023-12-07T09:32:31;33.83;;;31.63;;
16862;SDS011;52193;48.216;-1.698;2023-12-07T09:35:03;33.65;;;31.65;;
16862;SDS011;52193;48.216;-1.698;2023-12-07T09:37:32;34.45;;;32.35;;
16862;SDS011;52193;48.216;-1.698;2023-12-07T09:39:59;34.83;;;32.72;;
16862;SDS011;52193;48.216;-1.698;2023-12-07T09:42:29;35.60;;;33.35;;
16862;SDS011;52193;48.216;-1.698;2023-12-07T09:44:56;35.58;;;33.28;;
16862;SDS011;52193;48.216;-1.698;2023-12-07T09:47:23;34.83;;;32.75;;
16862;SDS011;52193;48.216;-1.698;2023-12-07T09:49:51;35.72;;;33.58;;
16862;SDS011;52193;48.216;-1.698;2023-12-07T09:52:19;35.47;;;33.28;;
16862;SDS011;52193;48.216;-1.698;2023-12-07T09:54:48;35.42;;;33.22;;
16862;SDS011;52193;48.216;-1.698;2023-12-07T09:57:17;35.72;;;33.25;;
16862;SDS011;52193;48.216;-1.698;2023-12-07T09:59:44;35.22;;;33.03;;
16862;SDS011;52193;48.216;-1.698;2023-12-07T10:02:11;35.13;;;33.03;;
16862;SDS011;52193;48.216;-1.698;2023-12-07T10:04:39;35.97;;;33.53;;
16862;SDS011;52193;48.216;-1.698;2023-12-07T10:07:06;35.72;;;33.53;;
16862;SDS011;52193;48.216;-1.698;2023-12-07T10:09:33;37.95;;;35.45;;
16862;SDS011;52193;48.216;-1.698;2023-12-07T10:12:05;37.85;;;35.35;;
16862;SDS011;52193;48.216;-1.698;2023-12-07T10:14:33;37.90;;;35.25;;
16862;SDS011;52193;48.216;-1.698;2023-12-07T10:17:00;38.58;;;36.03;;
16862;SDS011;52193;48.216;-1.698;2023-12-07T10:19:27;38.55;;;35.95;;
16862;SDS011;52193;48.216;-1.698;2023-12-07T10:21:54;38.47;;;35.88;;
16862;SDS011;52193;48.216;-1.698;2023-12-07T10:24:21;37.33;;;34.92;;
16862;SDS011;52193;48.216;-1.698;2023-12-07T10:26:51;37.10;;;34.50;;
16862;SDS011;52193;48.216;-1.698;2023-12-07T10:29:20;37.63;;;35.28;;
16862;SDS011;52193;48.216;-1.698;2023-12-07T10:31:48;36.85;;;34.65;;
16862;SDS011;52193;48.216;-1.698;2023-12-07T10:34:17;37.25;;;34.75;;
16862;SDS011;52193;48.216;-1.698;2023-12-07T10:36:45;37.75;;;35.35;;
16862;SDS011;52193;48.216;-1.698;2023-12-07T10:39:12;37.08;;;34.78;;
16862;SDS011;52193;48.216;-1.698;2023-12-07T10:41:40;36.58;;;34.25;;
16862;SDS011;52193;48.216;-1.698;2023-12-07T10:44:11;37.90;;;35.50;;
16862;SDS011;52193;48.216;-1.698;2023-12-07T10:46:42;38.38;;;35.90;;
16862;SDS011;52193;48.216;-1.698;2023-12-07T10:49:11;37.60;;;35.30;;
16862;SDS011;52193;48.216;-1.698;2023-12-07T10:51:45;39.22;;;36.67;;
16862;SDS011;52193;48.216;-1.698;2023-12-07T10:54:17;38.63;;;36.10;;
16862;SDS011;52193;48.216;-1.698;2023-12-07T10:56:48;38.60;;;36.10;;
16862;SDS011;52193;48.216;-1.698;2023-12-07T10:59:16;39.38;;;36.78;;
16862;SDS011;52193;48.216;-1.698;2023-12-07T11:01:44;38.85;;;36.35;;
16862;SDS011;52193;48.216;-1.698;2023-12-07T11:04:13;38.17;;;35.50;;
16862;SDS011;52193;48.216;-1.698;2023-12-07T11:06:40;39.28;;;36.78;;
16862;SDS011;52193;48.216;-1.698;2023-12-07T11:09:12;39.88;;;37.22;;
16862;SDS011;52193;48.216;-1.698;2023-12-07T11:11:44;40.03;;;37.30;;
16862;SDS011;52193;48.216;-1.698;2023-12-07T11:14:15;39.30;;;36.58;;
16862;SDS011;52193;48.216;-1.698;2023-12-07T11:16:43;39.60;;;36.95;;
16862;SDS011;52193;48.216;-1.698;2023-12-07T11:22:12;39.08;;;36.50;;
16862;SDS011;52193;48.216;-1.698;2023-12-07T11:24:51;39.08;;;36.58;;
16862;SDS011;52193;48.216;-1.698;2023-12-07T11:27:19;40.38;;;37.67;;
16862;SDS011;52193;48.216;-1.698;2023-12-07T11:29:47;38.92;;;36.42;;
16862;SDS011;52193;48.216;-1.698;2023-12-07T11:32:16;39.28;;;36.63;;
16862;SDS011;52193;48.216;-1.698;2023-12-07T11:34:43;40.15;;;37.35;;
16862;SDS011;52193;48.216;-1.698;2023-12-07T11:37:10;39.03;;;36.42;;
16862;SDS011;52193;48.216;-1.698;2023-12-07T11:39:41;39.40;;;36.63;;
16862;SDS011;52193;48.216;-1.698;2023-12-07T11:42:10;39.88;;;37.17;;
16862;SDS011;52193;48.216;-1.698;2023-12-07T11:44:38;39.28;;;36.40;;
16862;SDS011;52193;48.216;-1.698;2023-12-07T11:47:06;40.08;;;37.47;;
16862;SDS011;52193;48.216;-1.698;2023-12-07T11:49:36;39.65;;;37.05;;
16862;SDS011;52193;48.216;-1.698;2023-12-07T11:52:12;39.40;;;36.70;;
16862;SDS011;52193;48.216;-1.698;2023-12-07T11:54:40;39.42;;;36.80;;
16862;SDS011;52193;48.216;-1.698;2023-12-07T11:57:09;40.35;;;37.55;;
16862;SDS011;52193;48.216;-1.698;2023-12-07T11:59:36;39.78;;;36.97;;
16862;SDS011;52193;48.216;-1.698;2023-12-07T12:02:04;39.55;;;37.05;;
16862;SDS011;52193;48.216;-1.698;2023-12-07T12:04:30;40.40;;;37.60;;
16862;SDS011;52193;48.216;-1.698;2023-12-07T12:06:58;39.65;;;37.15;;
16862;SDS011;52193;48.216;-1.698;2023-12-07T12:09:25;38.25;;;35.85;;
16862;SDS011;52193;48.216;-1.698;2023-12-07T12:11:52;39.15;;;36.65;;
16862;SDS011;52193;48.216;-1.698;2023-12-07T12:14:19;39.67;;;36.97;;
16862;SDS011;52193;48.216;-1.698;2023-12-07T12:16:47;39.88;;;37.30;;
16862;SDS011;52193;48.216;-1.698;2023-12-07T12:19:14;39.20;;;36.80;;
16862;SDS011;52193;48.216;-1.698;2023-12-07T12:21:41;39.53;;;37.03;;
16862;SDS011;52193;48.216;-1.698;2023-12-07T12:24:10;39.33;;;36.83;;
16862;SDS011;52193;48.216;-1.698;2023-12-07T12:26:38;38.83;;;36.17;;
16862;SDS011;52193;48.216;-1.698;2023-12-07T12:29:07;38.10;;;35.60;;
16862;SDS011;52193;48.216;-1.698;2023-12-07T12:31:34;37.90;;;35.40;;
16862;SDS011;52193;48.216;-1.698;2023-12-07T12:34:01;37.13;;;34.58;;
16862;SDS011;52193;48.216;-1.698;2023-12-07T12:36:28;37.03;;;34.65;;
16862;SDS011;52193;48.216;-1.698;2023-12-07T12:38:55;37.08;;;34.42;;
16862;SDS011;52193;48.216;-1.698;2023-12-07T12:41:23;37.35;;;34.95;;
16862;SDS011;52193;48.216;-1.698;2023-12-07T12:43:51;36.95;;;34.55;;
16862;SDS011;52193;48.216;-1.698;2023-12-07T12:46:18;37.53;;;35.13;;
16862;SDS011;52193;48.216;-1.698;2023-12-07T12:48:54;36.30;;;33.83;;
16862;SDS011;52193;48.216;-1.698;2023-12-07T12:51:23;37.40;;;35.00;;
16862;SDS011;52193;48.216;-1.698;2023-12-07T12:53:52;37.08;;;34.80;;
16862;SDS011;52193;48.216;-1.698;2023-12-07T12:56:20;36.72;;;34.33;;
16862;SDS011;52193;48.216;-1.698;2023-12-07T12:58:50;36.10;;;33.97;;
16862;SDS011;52193;48.216;-1.698;2023-12-07T13:01:18;36.85;;;34.65;;
16862;SDS011;52193;48.216;-1.698;2023-12-07T13:03:45;35.72;;;33.42;;
16862;SDS011;52193;48.216;-1.698;2023-12-07T13:06:13;35.58;;;33.38;;
16862;SDS011;52193;48.216;-1.698;2023-12-07T13:08:40;35.28;;;33.08;;
16862;SDS011;52193;48.216;-1.698;2023-12-07T13:11:07;34.88;;;32.88;;
16862;SDS011;52193;48.216;-1.698;2023-12-07T13:13:34;37.47;;;35.03;;
16862;SDS011;52193;48.216;-1.698;2023-12-07T13:16:02;35.70;;;33.50;;
16862;SDS011;52193;48.216;-1.698;2023-12-07T13:18:30;36.58;;;34.17;;
16862;SDS011;52193;48.216;-1.698;2023-12-07T13:20:56;37.38;;;35.10;;
16862;SDS011;52193;48.216;-1.698;2023-12-07T13:23:24;35.60;;;33.50;;
16862;SDS011;52193;48.216;-1.698;2023-12-07T13:25:51;35.88;;;33.45;;
16862;SDS011;52193;48.216;-1.698;2023-12-07T13:28:19;35.17;;;33.10;;
16862;SDS011;52193;48.216;-1.698;2023-12-07T13:30:47;36.08;;;33.78;;
16862;SDS011;52193;48.216;-1.698;2023-12-07T13:33:15;36.55;;;34.13;;
16862;SDS011;52193;48.216;-1.698;2023-12-07T13:35:42;35.72;;;33.63;;
16862;SDS011;52193;48.216;-1.698;2023-12-07T13:38:09;36.13;;;33.92;;
16862;SDS011;52193;48.216;-1.698;2023-12-07T13:40:36;36.55;;;34.25;;
16862;SDS011;52193;48.216;-1.698;2023-12-07T13:43:03;37.17;;;34.88;;
16862;SDS011;52193;48.216;-1.698;2023-12-07T13:45:31;37.17;;;34.88;;
16862;SDS011;52193;48.216;-1.698;2023-12-07T13:47:59;36.67;;;34.38;;
16862;SDS011;52193;48.216;-1.698;2023-12-07T13:50:27;36.90;;;34.60;;
16862;SDS011;52193;48.216;-1.698;2023-12-07T13:52:54;37.03;;;34.53;;
16862;SDS011;52193;48.216;-1.698;2023-12-07T13:55:21;37.80;;;35.40;;
16862;SDS011;52193;48.216;-1.698;2023-12-07T13:57:49;38.20;;;35.40;;
16862;SDS011;52193;48.216;-1.698;2023-12-07T14:00:18;38.08;;;35.63;;
16862;SDS011;52193;48.216;-1.698;2023-12-07T14:02:45;38.35;;;35.90;;
16862;SDS011;52193;48.216;-1.698;2023-12-07T14:05:12;38.00;;;35.53;;
16862;SDS011;52193;48.216;-1.698;2023-12-07T14:07:40;38.70;;;36.20;;
16862;SDS011;52193;48.216;-1.698;2023-12-07T14:10:07;38.92;;;36.35;;
16862;SDS011;52193;48.216;-1.698;2023-12-07T14:12:34;38.40;;;35.90;;
16862;SDS011;52193;48.216;-1.698;2023-12-07T14:15:01;38.45;;;35.92;;